BAW910N EGLL-EDDF
Flight info
| Callsign | BAW910N |
|---|---|
| Flight time | 1h 6m |
| Altitude | 35000 |
| Route | DET L6 DVR UL9 KONAN UL607 SPI T180 NIVNU T847 IMCOM IMCOM1A |
| Aircraft | A20N/M-SDE2E3FGHIRWXY/LB1 |
Departure
| Time | 2026-05-05 19:31 |
|---|---|
| Airport | London Heathrow Airport (EGLL) |
Arrival
| Time | 2026-05-05 20:37 |
|---|---|
| Airport | Frankfurt Main Airport (EDDF) |
| Time | Latitude | Longitude | Altitude | Speed | Heading |
|---|---|---|---|---|---|
| 2026-05-05 18:55 | 51.46930 | -0.48790 | 89 ft | 0 kts | 359° |
| 2026-05-05 18:59 | 51.46924 | -0.48789 | 88 ft | 0 kts | 359° |
| 2026-05-05 19:08 | 51.46911 | -0.48789 | 88 ft | 4 kts | 359° |
| 2026-05-05 19:08 | 51.46887 | -0.48792 | 87 ft | 4 kts | 35° |
| 2026-05-05 19:08 | 51.46876 | -0.48825 | 89 ft | 4 kts | 89° |
| 2026-05-05 19:09 | 51.46876 | -0.48833 | 88 ft | 3 kts | 89° |
| 2026-05-05 19:09 | 51.46876 | -0.48790 | 87 ft | 4 kts | 89° |
| 2026-05-05 19:09 | 51.46876 | -0.48777 | 91 ft | 0 kts | 89° |
| 2026-05-05 19:12 | 51.46876 | -0.48771 | 91 ft | 2 kts | 89° |
| 2026-05-05 19:12 | 51.46876 | -0.48727 | 88 ft | 6 kts | 89° |
| 2026-05-05 19:13 | 51.46876 | -0.48657 | 88 ft | 6 kts | 89° |
| 2026-05-05 19:13 | 51.46877 | -0.48588 | 86 ft | 0 kts | 89° |
| 2026-05-05 19:13 | 51.46877 | -0.48566 | 86 ft | 4 kts | 89° |
| 2026-05-05 19:13 | 51.46877 | -0.48501 | 86 ft | 7 kts | 90° |
| 2026-05-05 19:14 | 51.46840 | -0.48472 | 88 ft | 7 kts | 176° |
| 2026-05-05 19:14 | 51.46831 | -0.48472 | 87 ft | 3 kts | 178° |
| 2026-05-05 19:14 | 51.46831 | -0.48471 | 87 ft | 0 kts | 178° |
| 2026-05-05 19:14 | 51.46821 | -0.48471 | 88 ft | 3 kts | 178° |
| 2026-05-05 19:15 | 51.46788 | -0.48470 | 89 ft | 6 kts | 180° |
| 2026-05-05 19:15 | 51.46735 | -0.48469 | 86 ft | 6 kts | 180° |
| 2026-05-05 19:15 | 51.46680 | -0.48470 | 87 ft | 10 kts | 184° |
| 2026-05-05 19:15 | 51.46652 | -0.48555 | 87 ft | 10 kts | 266° |
| 2026-05-05 19:16 | 51.46650 | -0.48656 | 87 ft | 0 kts | 269° |
| 2026-05-05 19:17 | 51.46650 | -0.48663 | 87 ft | 2 kts | 269° |
| 2026-05-05 19:17 | 51.46647 | -0.48706 | 88 ft | 6 kts | 256° |
| 2026-05-05 19:17 | 51.46637 | -0.48731 | 87 ft | 0 kts | 228° |
| 2026-05-05 19:22 | 51.46628 | -0.48745 | 91 ft | 4 kts | 223° |
| 2026-05-05 19:22 | 51.46598 | -0.48770 | 89 ft | 0 kts | 201° |
| 2026-05-05 19:24 | 51.46596 | -0.48771 | 89 ft | 1 kts | 201° |
| 2026-05-05 19:24 | 51.46576 | -0.48782 | 87 ft | 5 kts | 197° |
| 2026-05-05 19:24 | 51.46530 | -0.48786 | 87 ft | 8 kts | 169° |
| 2026-05-05 19:25 | 51.46486 | -0.48727 | 89 ft | 9 kts | 117° |
| 2026-05-05 19:25 | 51.46479 | -0.48620 | 88 ft | 11 kts | 90° |
| 2026-05-05 19:25 | 51.46478 | -0.48607 | 88 ft | 0 kts | 90° |
| 2026-05-05 19:30 | 51.46478 | -0.48562 | 88 ft | 23 kts | 90° |
| 2026-05-05 19:30 | 51.46481 | -0.47914 | 86 ft | 91 kts | 90° |
| 2026-05-05 19:30 | 51.46485 | -0.46605 | 90 ft | 141 kts | 89° |
| 2026-05-05 19:31 | 51.46490 | -0.44952 | 594 ft | 136 kts | 90° |
| 2026-05-05 19:31 | 51.46468 | -0.43468 | 1214 ft | 138 kts | 87° |
| 2026-05-05 19:31 | 51.46484 | -0.41847 | 1632 ft | 151 kts | 94° |
| 2026-05-05 19:31 | 51.46117 | -0.40243 | 2061 ft | 165 kts | 118° |
| 2026-05-05 19:32 | 51.45422 | -0.38628 | 2421 ft | 187 kts | 124° |
| 2026-05-05 19:32 | 51.44622 | -0.36832 | 2807 ft | 210 kts | 120° |
| 2026-05-05 19:32 | 51.43902 | -0.34650 | 3287 ft | 232 kts | 110° |
| 2026-05-05 19:32 | 51.43337 | -0.32110 | 3875 ft | 252 kts | 104° |
| 2026-05-05 19:33 | 51.42877 | -0.29314 | 4631 ft | 264 kts | 101° |
| 2026-05-05 19:33 | 51.42468 | -0.26420 | 5561 ft | 268 kts | 99° |
| 2026-05-05 19:33 | 51.42078 | -0.23465 | 6497 ft | 273 kts | 99° |
| 2026-05-05 19:33 | 51.41683 | -0.20454 | 7403 ft | 278 kts | 100° |
| 2026-05-05 19:34 | 51.41275 | -0.17402 | 8332 ft | 283 kts | 100° |
| 2026-05-05 19:34 | 51.40854 | -0.14301 | 9243 ft | 287 kts | 101° |
| 2026-05-05 19:34 | 51.40453 | -0.11375 | 10055 ft | 292 kts | 101° |
| 2026-05-05 19:35 | 51.39507 | -0.04496 | 10904 ft | 334 kts | 101° |
| 2026-05-05 19:35 | 51.39001 | -0.00843 | 11479 ft | 344 kts | 101° |
| 2026-05-05 19:35 | 51.38477 | 0.02923 | 12309 ft | 348 kts | 101° |
| 2026-05-05 19:35 | 51.37946 | 0.06725 | 13138 ft | 351 kts | 102° |
| 2026-05-05 19:36 | 51.37407 | 0.10574 | 13936 ft | 355 kts | 102° |
| 2026-05-05 19:36 | 51.36864 | 0.14434 | 14674 ft | 358 kts | 102° |
| 2026-05-05 19:36 | 51.36313 | 0.18348 | 15400 ft | 361 kts | 102° |
| 2026-05-05 19:36 | 51.35757 | 0.22288 | 16118 ft | 365 kts | 102° |
| 2026-05-05 19:37 | 51.35194 | 0.26264 | 16831 ft | 368 kts | 102° |
| 2026-05-05 19:37 | 51.34631 | 0.30230 | 17538 ft | 371 kts | 102° |
| 2026-05-05 19:37 | 51.34056 | 0.34273 | 18352 ft | 374 kts | 102° |
| 2026-05-05 19:37 | 51.33473 | 0.38361 | 18954 ft | 378 kts | 102° |
| 2026-05-05 19:38 | 51.32883 | 0.42486 | 19534 ft | 382 kts | 102° |
| 2026-05-05 19:38 | 51.32288 | 0.46644 | 20109 ft | 386 kts | 102° |
| 2026-05-05 19:38 | 51.31684 | 0.50847 | 20683 ft | 389 kts | 102° |
| 2026-05-05 19:38 | 51.31074 | 0.55080 | 21239 ft | 393 kts | 102° |
| 2026-05-05 19:39 | 51.30453 | 0.59367 | 21792 ft | 397 kts | 103° |
| 2026-05-05 19:39 | 51.29695 | 0.63632 | 22349 ft | 401 kts | 105° |
| 2026-05-05 19:39 | 51.28907 | 0.67925 | 22906 ft | 405 kts | 105° |
| 2026-05-05 19:39 | 51.28113 | 0.72266 | 23444 ft | 409 kts | 105° |
| 2026-05-05 19:40 | 51.27312 | 0.76643 | 23919 ft | 412 kts | 106° |
| 2026-05-05 19:40 | 51.26506 | 0.81036 | 24419 ft | 413 kts | 106° |
| 2026-05-05 19:40 | 51.25703 | 0.85401 | 24895 ft | 415 kts | 106° |
| 2026-05-05 19:40 | 51.24885 | 0.89837 | 25321 ft | 418 kts | 107° |
| 2026-05-05 19:41 | 51.24060 | 0.94296 | 25788 ft | 420 kts | 107° |
| 2026-05-05 19:41 | 51.23230 | 0.98772 | 26260 ft | 422 kts | 107° |
| 2026-05-05 19:41 | 51.22394 | 1.03271 | 26705 ft | 424 kts | 107° |
| 2026-05-05 19:41 | 51.21552 | 1.07792 | 27130 ft | 426 kts | 107° |
| 2026-05-05 19:42 | 51.20701 | 1.12345 | 27552 ft | 429 kts | 108° |
| 2026-05-05 19:42 | 51.19847 | 1.16913 | 27968 ft | 431 kts | 108° |
| 2026-05-05 19:42 | 51.18988 | 1.21492 | 28379 ft | 433 kts | 108° |
| 2026-05-05 19:42 | 51.18119 | 1.26115 | 28772 ft | 435 kts | 108° |
| 2026-05-05 19:43 | 51.17246 | 1.30746 | 29143 ft | 437 kts | 108° |
| 2026-05-05 19:43 | 51.16476 | 1.35389 | 29465 ft | 441 kts | 103° |
| 2026-05-05 19:43 | 51.16045 | 1.40249 | 29823 ft | 444 kts | 96° |
| 2026-05-05 19:43 | 51.15823 | 1.45171 | 30146 ft | 447 kts | 96° |
| 2026-05-05 19:44 | 51.15595 | 1.50106 | 30489 ft | 448 kts | 96° |
| 2026-05-05 19:44 | 51.15359 | 1.55067 | 30837 ft | 449 kts | 96° |
| 2026-05-05 19:44 | 51.15117 | 1.60035 | 31202 ft | 449 kts | 96° |
| 2026-05-05 19:44 | 51.14878 | 1.64914 | 31633 ft | 447 kts | 97° |
| 2026-05-05 19:45 | 51.14633 | 1.69845 | 32093 ft | 445 kts | 97° |
| 2026-05-05 19:45 | 51.14387 | 1.74751 | 32544 ft | 443 kts | 97° |
| 2026-05-05 19:45 | 51.14139 | 1.79640 | 32964 ft | 441 kts | 97° |
| 2026-05-05 19:45 | 51.13891 | 1.84511 | 33372 ft | 439 kts | 97° |
| 2026-05-05 19:46 | 51.13643 | 1.89342 | 33757 ft | 438 kts | 97° |
| 2026-05-05 19:46 | 51.13392 | 1.94177 | 34090 ft | 437 kts | 97° |
| 2026-05-05 19:46 | 51.13143 | 1.98942 | 34313 ft | 438 kts | 97° |
| 2026-05-05 19:46 | 51.12888 | 2.03782 | 34538 ft | 439 kts | 97° |
| 2026-05-05 19:47 | 51.12630 | 2.08646 | 34751 ft | 440 kts | 97° |
| 2026-05-05 19:47 | 51.12369 | 2.13523 | 34875 ft | 441 kts | 97° |
| 2026-05-05 19:47 | 51.12107 | 2.18376 | 34912 ft | 440 kts | 97° |
| 2026-05-05 19:48 | 51.11578 | 2.28084 | 34914 ft | 439 kts | 97° |
| 2026-05-05 19:48 | 51.11044 | 2.37709 | 34909 ft | 440 kts | 98° |
| 2026-05-05 19:49 | 51.10499 | 2.47402 | 34909 ft | 439 kts | 98° |
| 2026-05-05 19:49 | 51.09946 | 2.57089 | 34915 ft | 439 kts | 98° |
| 2026-05-05 19:50 | 51.09147 | 2.66702 | 34908 ft | 436 kts | 105° |
| 2026-05-05 19:50 | 51.07518 | 2.75985 | 34910 ft | 435 kts | 108° |
| 2026-05-05 19:51 | 51.06125 | 2.83665 | 34908 ft | 435 kts | 108° |
| 2026-05-05 19:51 | 51.04447 | 2.92898 | 34908 ft | 435 kts | 109° |
| 2026-05-05 19:52 | 51.02484 | 3.03620 | 34905 ft | 435 kts | 109° |
| 2026-05-05 19:52 | 51.00787 | 3.12834 | 34900 ft | 435 kts | 109° |
| 2026-05-05 19:53 | 50.99367 | 3.20506 | 34897 ft | 435 kts | 109° |
| 2026-05-05 19:53 | 50.97652 | 3.29729 | 34888 ft | 434 kts | 109° |
| 2026-05-05 19:54 | 50.95934 | 3.38928 | 34878 ft | 434 kts | 109° |
| 2026-05-05 19:54 | 50.94222 | 3.48044 | 34876 ft | 434 kts | 109° |
| 2026-05-05 19:55 | 50.92490 | 3.57225 | 34874 ft | 434 kts | 109° |
| 2026-05-05 19:55 | 50.90751 | 3.66396 | 34873 ft | 433 kts | 109° |
| 2026-05-05 19:56 | 50.89001 | 3.75478 | 34870 ft | 433 kts | 109° |
| 2026-05-05 19:56 | 50.87230 | 3.84623 | 34869 ft | 433 kts | 109° |
| 2026-05-05 19:57 | 50.85457 | 3.93741 | 34872 ft | 433 kts | 109° |
| 2026-05-05 19:57 | 50.83676 | 4.02862 | 34872 ft | 433 kts | 109° |
| 2026-05-05 19:58 | 50.81900 | 4.11918 | 34875 ft | 433 kts | 109° |
| 2026-05-05 19:58 | 50.80108 | 4.21012 | 34877 ft | 433 kts | 109° |
| 2026-05-05 19:59 | 50.78304 | 4.30120 | 34885 ft | 433 kts | 109° |
| 2026-05-05 19:59 | 50.76498 | 4.39200 | 34887 ft | 433 kts | 109° |
| 2026-05-05 20:00 | 50.74683 | 4.48280 | 34889 ft | 433 kts | 110° |
| 2026-05-05 20:00 | 50.72864 | 4.57337 | 34886 ft | 432 kts | 110° |
| 2026-05-05 20:01 | 50.71067 | 4.66406 | 34883 ft | 432 kts | 109° |
| 2026-05-05 20:01 | 50.69332 | 4.75424 | 34878 ft | 432 kts | 109° |
| 2026-05-05 20:02 | 50.67577 | 4.84470 | 34874 ft | 431 kts | 109° |
| 2026-05-05 20:02 | 50.65811 | 4.93484 | 34869 ft | 430 kts | 110° |
| 2026-05-05 20:03 | 50.63977 | 5.02441 | 34865 ft | 429 kts | 110° |
| 2026-05-05 20:03 | 50.62128 | 5.11364 | 34862 ft | 428 kts | 110° |
| 2026-05-05 20:04 | 50.60283 | 5.20273 | 34859 ft | 427 kts | 110° |
| 2026-05-05 20:04 | 50.58449 | 5.29112 | 34480 ft | 422 kts | 110° |
| 2026-05-05 20:04 | 50.57538 | 5.33486 | 34033 ft | 418 kts | 110° |
| 2026-05-05 20:05 | 50.56645 | 5.37763 | 33434 ft | 415 kts | 110° |
| 2026-05-05 20:05 | 50.55741 | 5.42080 | 32582 ft | 418 kts | 110° |
| 2026-05-05 20:05 | 50.54825 | 5.46439 | 31681 ft | 421 kts | 110° |
| 2026-05-05 20:05 | 50.53901 | 5.50827 | 30778 ft | 425 kts | 110° |
| 2026-05-05 20:06 | 50.52965 | 5.55263 | 29951 ft | 427 kts | 109° |
| 2026-05-05 20:06 | 50.52030 | 5.59690 | 29214 ft | 425 kts | 109° |
| 2026-05-05 20:06 | 50.51107 | 5.64080 | 28534 ft | 421 kts | 109° |
| 2026-05-05 20:06 | 50.50261 | 5.68479 | 27847 ft | 419 kts | 107° |
| 2026-05-05 20:07 | 50.49461 | 5.72868 | 27168 ft | 416 kts | 107° |
| 2026-05-05 20:07 | 50.48669 | 5.77229 | 26494 ft | 414 kts | 107° |
| 2026-05-05 20:07 | 50.47873 | 5.81556 | 25858 ft | 411 kts | 107° |
| 2026-05-05 20:07 | 50.47081 | 5.85813 | 25234 ft | 409 kts | 107° |
| 2026-05-05 20:08 | 50.46279 | 5.90090 | 24599 ft | 407 kts | 107° |
| 2026-05-05 20:08 | 50.45481 | 5.94328 | 24240 ft | 400 kts | 107° |
| 2026-05-05 20:08 | 50.44687 | 5.98525 | 24118 ft | 405 kts | 107° |
| 2026-05-05 20:08 | 50.43878 | 6.02788 | 24001 ft | 408 kts | 108° |
| 2026-05-05 20:09 | 50.43069 | 6.07043 | 23893 ft | 406 kts | 108° |
| 2026-05-05 20:09 | 50.42262 | 6.11283 | 23829 ft | 406 kts | 108° |
| 2026-05-05 20:09 | 50.41453 | 6.15521 | 23816 ft | 406 kts | 108° |
| 2026-05-05 20:09 | 50.40642 | 6.19759 | 23814 ft | 406 kts | 108° |
| 2026-05-05 20:10 | 50.39828 | 6.24008 | 23809 ft | 406 kts | 108° |
| 2026-05-05 20:10 | 50.39013 | 6.28250 | 23811 ft | 406 kts | 108° |
| 2026-05-05 20:10 | 50.38198 | 6.32481 | 23809 ft | 406 kts | 108° |
| 2026-05-05 20:10 | 50.37382 | 6.36715 | 23805 ft | 406 kts | 108° |
| 2026-05-05 20:11 | 50.36615 | 6.40971 | 23800 ft | 407 kts | 104° |
| 2026-05-05 20:11 | 50.36163 | 6.45301 | 23803 ft | 408 kts | 97° |
| 2026-05-05 20:11 | 50.35912 | 6.49732 | 23801 ft | 408 kts | 96° |
| 2026-05-05 20:11 | 50.35647 | 6.54151 | 23798 ft | 408 kts | 97° |
| 2026-05-05 20:12 | 50.35369 | 6.58576 | 23797 ft | 408 kts | 97° |
| 2026-05-05 20:12 | 50.35087 | 6.62974 | 23798 ft | 408 kts | 97° |
| 2026-05-05 20:12 | 50.34802 | 6.67394 | 23802 ft | 408 kts | 97° |
| 2026-05-05 20:12 | 50.34516 | 6.71821 | 23802 ft | 408 kts | 97° |
| 2026-05-05 20:13 | 50.34232 | 6.76202 | 23797 ft | 407 kts | 97° |
| 2026-05-05 20:13 | 50.33952 | 6.80618 | 23799 ft | 408 kts | 98° |
| 2026-05-05 20:13 | 50.33476 | 6.84971 | 23803 ft | 406 kts | 105° |
| 2026-05-05 20:13 | 50.32654 | 6.89194 | 23802 ft | 405 kts | 112° |
| 2026-05-05 20:14 | 50.31523 | 6.93229 | 23799 ft | 404 kts | 116° |
| 2026-05-05 20:14 | 50.30326 | 6.97206 | 23799 ft | 404 kts | 116° |
| 2026-05-05 20:14 | 50.29137 | 7.01186 | 23797 ft | 404 kts | 116° |
| 2026-05-05 20:14 | 50.27950 | 7.05172 | 23794 ft | 403 kts | 116° |
| 2026-05-05 20:15 | 50.26770 | 7.09133 | 23624 ft | 401 kts | 116° |
| 2026-05-05 20:15 | 50.25592 | 7.13080 | 23143 ft | 400 kts | 116° |
| 2026-05-05 20:15 | 50.24414 | 7.17014 | 22561 ft | 397 kts | 116° |
| 2026-05-05 20:15 | 50.23247 | 7.20904 | 21936 ft | 394 kts | 116° |
| 2026-05-05 20:16 | 50.22083 | 7.24777 | 21318 ft | 392 kts | 116° |
| 2026-05-05 20:16 | 50.20930 | 7.28608 | 20738 ft | 389 kts | 116° |
| 2026-05-05 20:16 | 50.19798 | 7.32371 | 20148 ft | 387 kts | 115° |
| 2026-05-05 20:16 | 50.18821 | 7.36273 | 19567 ft | 385 kts | 112° |
| 2026-05-05 20:17 | 50.17897 | 7.40185 | 18990 ft | 383 kts | 112° |
| 2026-05-05 20:17 | 50.16974 | 7.44073 | 18449 ft | 381 kts | 112° |
| 2026-05-05 20:17 | 50.16054 | 7.47928 | 17891 ft | 379 kts | 112° |
| 2026-05-05 20:17 | 50.15136 | 7.51766 | 17284 ft | 376 kts | 112° |
| 2026-05-05 20:18 | 50.14222 | 7.55581 | 16692 ft | 374 kts | 112° |
| 2026-05-05 20:18 | 50.13311 | 7.59369 | 16118 ft | 372 kts | 112° |
| 2026-05-05 20:18 | 50.12404 | 7.63140 | 15528 ft | 370 kts | 112° |
| 2026-05-05 20:18 | 50.11469 | 7.66871 | 14973 ft | 368 kts | 117° |
| 2026-05-05 20:19 | 50.10070 | 7.70153 | 14418 ft | 362 kts | 133° |
| 2026-05-05 20:19 | 50.08425 | 7.73077 | 14098 ft | 356 kts | 132° |
| 2026-05-05 20:19 | 50.06900 | 7.76171 | 13950 ft | 364 kts | 126° |
| 2026-05-05 20:19 | 50.05825 | 7.79736 | 13840 ft | 367 kts | 106° |
| 2026-05-05 20:20 | 50.05606 | 7.83687 | 13810 ft | 369 kts | 85° |
| 2026-05-05 20:20 | 50.06022 | 7.87639 | 13810 ft | 371 kts | 78° |
| 2026-05-05 20:20 | 50.06579 | 7.91545 | 13809 ft | 370 kts | 78° |
| 2026-05-05 20:20 | 50.07117 | 7.95416 | 13815 ft | 370 kts | 79° |
| 2026-05-05 20:21 | 50.07623 | 7.99391 | 13751 ft | 368 kts | 80° |
| 2026-05-05 20:21 | 50.08076 | 8.03253 | 13420 ft | 367 kts | 81° |
| 2026-05-05 20:21 | 50.08508 | 8.07121 | 12926 ft | 365 kts | 81° |
| 2026-05-05 20:21 | 50.08931 | 8.11004 | 12413 ft | 362 kts | 81° |
| 2026-05-05 20:22 | 50.09347 | 8.14868 | 11872 ft | 361 kts | 81° |
| 2026-05-05 20:22 | 50.09759 | 8.18706 | 11372 ft | 358 kts | 81° |
| 2026-05-05 20:22 | 50.10167 | 8.22512 | 10880 ft | 355 kts | 81° |
| 2026-05-05 20:22 | 50.10572 | 8.26298 | 10381 ft | 353 kts | 81° |
| 2026-05-05 20:23 | 50.10970 | 8.30026 | 10140 ft | 343 kts | 81° |
| 2026-05-05 20:23 | 50.11353 | 8.33615 | 10003 ft | 329 kts | 81° |
| 2026-05-05 20:23 | 50.11719 | 8.37064 | 9886 ft | 316 kts | 81° |
| 2026-05-05 20:23 | 50.12069 | 8.40383 | 9708 ft | 306 kts | 81° |
| 2026-05-05 20:24 | 50.12414 | 8.43666 | 9144 ft | 309 kts | 81° |
| 2026-05-05 20:24 | 50.12766 | 8.47018 | 8483 ft | 315 kts | 81° |
| 2026-05-05 20:24 | 50.13117 | 8.50372 | 7853 ft | 320 kts | 81° |
| 2026-05-05 20:24 | 50.13477 | 8.53822 | 7227 ft | 324 kts | 81° |
| 2026-05-05 20:25 | 50.13842 | 8.57318 | 6611 ft | 328 kts | 81° |
| 2026-05-05 20:25 | 50.14209 | 8.60848 | 5985 ft | 330 kts | 81° |
| 2026-05-05 20:25 | 50.14577 | 8.64391 | 5397 ft | 331 kts | 82° |
| 2026-05-05 20:25 | 50.14941 | 8.67896 | 5125 ft | 321 kts | 82° |
| 2026-05-05 20:26 | 50.15287 | 8.71248 | 5014 ft | 306 kts | 82° |
| 2026-05-05 20:26 | 50.15611 | 8.74398 | 4993 ft | 289 kts | 82° |
| 2026-05-05 20:26 | 50.15919 | 8.77409 | 4994 ft | 273 kts | 82° |
| 2026-05-05 20:26 | 50.16210 | 8.80246 | 4993 ft | 256 kts | 82° |
| 2026-05-05 20:27 | 50.16483 | 8.82924 | 4995 ft | 248 kts | 82° |
| 2026-05-05 20:27 | 50.16755 | 8.85607 | 4991 ft | 250 kts | 82° |
| 2026-05-05 20:27 | 50.17025 | 8.88283 | 4986 ft | 249 kts | 82° |
| 2026-05-05 20:27 | 50.17291 | 8.90915 | 4985 ft | 239 kts | 82° |
| 2026-05-05 20:28 | 50.17542 | 8.93386 | 4977 ft | 223 kts | 82° |
| 2026-05-05 20:28 | 50.17774 | 8.95685 | 4971 ft | 207 kts | 82° |
| 2026-05-05 20:28 | 50.17793 | 8.97812 | 5002 ft | 190 kts | 110° |
| 2026-05-05 20:28 | 50.17122 | 8.99557 | 4995 ft | 190 kts | 143° |
| 2026-05-05 20:29 | 50.15984 | 9.00385 | 4984 ft | 179 kts | 176° |
| 2026-05-05 20:29 | 50.14765 | 9.00216 | 4987 ft | 176 kts | 195° |
| 2026-05-05 20:29 | 50.13565 | 8.99830 | 4983 ft | 176 kts | 194° |
| 2026-05-05 20:29 | 50.12364 | 8.99467 | 4985 ft | 176 kts | 194° |
| 2026-05-05 20:30 | 50.11157 | 8.99110 | 4986 ft | 176 kts | 194° |
| 2026-05-05 20:30 | 50.09963 | 8.98758 | 4901 ft | 173 kts | 194° |
| 2026-05-05 20:30 | 50.08835 | 8.98198 | 4586 ft | 170 kts | 217° |
| 2026-05-05 20:30 | 50.08137 | 8.96766 | 4232 ft | 169 kts | 251° |
| 2026-05-05 20:31 | 50.07784 | 8.95033 | 3866 ft | 168 kts | 252° |
| 2026-05-05 20:31 | 50.07422 | 8.93293 | 3489 ft | 169 kts | 252° |
| 2026-05-05 20:31 | 50.07053 | 8.91559 | 3146 ft | 167 kts | 251° |
| 2026-05-05 20:31 | 50.06686 | 8.89852 | 3006 ft | 169 kts | 251° |
| 2026-05-05 20:32 | 50.06324 | 8.88141 | 2990 ft | 168 kts | 254° |
| 2026-05-05 20:32 | 50.06125 | 8.86341 | 2979 ft | 169 kts | 265° |
| 2026-05-05 20:32 | 50.06167 | 8.84537 | 2795 ft | 166 kts | 274° |
| 2026-05-05 20:32 | 50.06276 | 8.82742 | 2429 ft | 168 kts | 274° |
| 2026-05-05 20:33 | 50.06374 | 8.80938 | 2096 ft | 163 kts | 273° |
| 2026-05-05 20:33 | 50.06466 | 8.79145 | 2027 ft | 170 kts | 273° |
| 2026-05-05 20:33 | 50.06557 | 8.77348 | 1990 ft | 155 kts | 273° |
| 2026-05-05 20:33 | 50.06636 | 8.75813 | 1992 ft | 136 kts | 272° |
| 2026-05-05 20:34 | 50.06710 | 8.74351 | 2001 ft | 135 kts | 272° |
| 2026-05-05 20:34 | 50.06781 | 8.72907 | 1999 ft | 133 kts | 272° |
| 2026-05-05 20:34 | 50.06851 | 8.71460 | 1998 ft | 134 kts | 270° |
| 2026-05-05 20:34 | 50.06735 | 8.70033 | 2004 ft | 133 kts | 251° |
| 2026-05-05 20:35 | 50.06405 | 8.68712 | 1975 ft | 134 kts | 248° |
| 2026-05-05 20:35 | 50.06075 | 8.67359 | 1802 ft | 132 kts | 249° |
| 2026-05-05 20:35 | 50.05765 | 8.66018 | 1605 ft | 132 kts | 249° |
| 2026-05-05 20:35 | 50.05464 | 8.64662 | 1244 ft | 134 kts | 249° |
| 2026-05-05 20:36 | 50.05129 | 8.63307 | 956 ft | 131 kts | 248° |
| 2026-05-05 20:36 | 50.04792 | 8.62000 | 848 ft | 136 kts | 249° |
| 2026-05-05 20:36 | 50.04477 | 8.60619 | 678 ft | 133 kts | 249° |
| 2026-05-05 20:36 | 50.04153 | 8.59259 | 501 ft | 134 kts | 248° |
| 2026-05-05 20:37 | 50.03830 | 8.57908 | 373 ft | 128 kts | 249° |
| 2026-05-05 20:37 | 50.03639 | 8.57134 | 364 ft | 101 kts | 249° |
| 2026-05-05 20:37 | 50.03430 | 8.56225 | 364 ft | 30 kts | 261° |
| 2026-05-05 20:37 | 50.03441 | 8.56020 | 368 ft | 9 kts | 279° |
| 2026-05-05 20:38 | 50.03448 | 8.55953 | 370 ft | 0 kts | 279° |
| 2026-05-05 20:39 | 50.03448 | 8.55951 | 370 ft | 1 kts | 279° |
| 2026-05-05 20:39 | 50.03451 | 8.55925 | 367 ft | 4 kts | 279° |
| 2026-05-05 20:39 | 50.03457 | 8.55871 | 364 ft | 6 kts | 280° |
| 2026-05-05 20:39 | 50.03466 | 8.55794 | 367 ft | 8 kts | 280° |
| 2026-05-05 20:40 | 50.03477 | 8.55703 | 369 ft | 8 kts | 281° |
| 2026-05-05 20:40 | 50.03489 | 8.55605 | 365 ft | 11 kts | 281° |
| 2026-05-05 20:40 | 50.03490 | 8.55477 | 367 ft | 13 kts | 256° |
| 2026-05-05 20:40 | 50.03456 | 8.55332 | 368 ft | 15 kts | 248° |
| 2026-05-05 20:41 | 50.03419 | 8.55167 | 369 ft | 17 kts | 249° |
| 2026-05-05 20:41 | 50.03398 | 8.54987 | 368 ft | 17 kts | 279° |
| 2026-05-05 20:41 | 50.03440 | 8.54847 | 364 ft | 13 kts | 315° |
| 2026-05-05 20:41 | 50.03539 | 8.54795 | 359 ft | 17 kts | 341° |
| 2026-05-05 20:42 | 50.03626 | 8.54744 | 362 ft | 14 kts | 339° |
| 2026-05-05 20:42 | 50.03702 | 8.54706 | 364 ft | 10 kts | 350° |
| 2026-05-05 20:42 | 50.03759 | 8.54754 | 367 ft | 10 kts | 58° |
| 2026-05-05 20:42 | 50.03785 | 8.54847 | 367 ft | 11 kts | 69° |
| 2026-05-05 20:43 | 50.03806 | 8.54930 | 369 ft | 0 kts | 68° |
| 2026-05-05 20:43 | 50.03812 | 8.54952 | 372 ft | 4 kts | 68° |
| 2026-05-05 20:43 | 50.03828 | 8.55014 | 367 ft | 8 kts | 69° |
| 2026-05-05 20:43 | 50.03850 | 8.55107 | 366 ft | 11 kts | 71° |
| 2026-05-05 20:44 | 50.03878 | 8.55230 | 366 ft | 13 kts | 70° |
| 2026-05-05 20:44 | 50.03913 | 8.55377 | 369 ft | 15 kts | 70° |
| 2026-05-05 20:44 | 50.03986 | 8.55454 | 366 ft | 14 kts | 348° |
| 2026-05-05 20:44 | 50.04083 | 8.55410 | 367 ft | 15 kts | 358° |
| 2026-05-05 20:45 | 50.04174 | 8.55670 | 370 ft | 16 kts | 69° |
| 2026-05-05 20:45 | 50.04192 | 8.55742 | 369 ft | 1 kts | 70° |
| 2026-05-05 20:45 | 50.04200 | 8.55777 | 372 ft | 5 kts | 70° |
| 2026-05-05 20:46 | 50.04201 | 8.55783 | 370 ft | 0 kts | 70° |
| 2026-05-05 20:46 | 50.04202 | 8.55786 | 370 ft | 1 kts | 70° |
| 2026-05-05 20:46 | 50.04210 | 8.55821 | 367 ft | 5 kts | 70° |
| 2026-05-05 20:47 | 50.04227 | 8.55892 | 372 ft | 9 kts | 70° |
| 2026-05-05 20:47 | 50.04252 | 8.55998 | 370 ft | 12 kts | 70° |
| 2026-05-05 20:47 | 50.04285 | 8.56133 | 371 ft | 15 kts | 69° |
| 2026-05-05 20:47 | 50.04324 | 8.56292 | 368 ft | 17 kts | 70° |
| 2026-05-05 20:48 | 50.04366 | 8.56475 | 368 ft | 19 kts | 70° |
| 2026-05-05 20:48 | 50.04413 | 8.56668 | 372 ft | 20 kts | 70° |
| 2026-05-05 20:48 | 50.04463 | 8.56876 | 368 ft | 21 kts | 69° |
| 2026-05-05 20:48 | 50.04498 | 8.57019 | 367 ft | 11 kts | 69° |
| 2026-05-05 20:49 | 50.04527 | 8.57142 | 367 ft | 14 kts | 70° |
| 2026-05-05 20:49 | 50.04563 | 8.57293 | 369 ft | 16 kts | 70° |
| 2026-05-05 20:49 | 50.04604 | 8.57468 | 373 ft | 18 kts | 70° |
| 2026-05-05 20:49 | 50.04647 | 8.57650 | 372 ft | 14 kts | 68° |
| 2026-05-05 20:50 | 50.04684 | 8.57805 | 368 ft | 13 kts | 69° |
| 2026-05-05 20:50 | 50.04734 | 8.57927 | 366 ft | 15 kts | 43° |
| 2026-05-05 20:50 | 50.04803 | 8.58055 | 371 ft | 16 kts | 68° |
| 2026-05-05 20:50 | 50.04843 | 8.58221 | 368 ft | 17 kts | 70° |
| 2026-05-05 20:51 | 50.04883 | 8.58388 | 370 ft | 13 kts | 70° |
| 2026-05-05 20:51 | 50.04908 | 8.58493 | 369 ft | 11 kts | 70° |
| 2026-05-05 20:51 | 50.04931 | 8.58593 | 367 ft | 10 kts | 70° |
| 2026-05-05 20:51 | 50.04940 | 8.58630 | 368 ft | 1 kts | 69° |
| 2026-05-05 20:52 | 50.04950 | 8.58666 | 372 ft | 5 kts | 60° |
| 2026-05-05 20:52 | 50.04989 | 8.58669 | 370 ft | 7 kts | 345° |
| 2026-05-05 20:52 | 50.05007 | 8.58660 | 368 ft | 3 kts | 342° |
| 2026-05-05 20:52 | 50.05022 | 8.58652 | 366 ft | 2 kts | 340° |
| 2026-05-05 20:53 | 50.05035 | 8.58644 | 369 ft | 2 kts | 339° |
| 2026-05-05 20:53 | 50.05052 | 8.58634 | 369 ft | 0 kts | 339° |
| 2026-05-05 20:53 | 50.05057 | 8.58631 | 368 ft | 0 kts | 339° |